Pagrindinis puslapis
METAR-TAF:

METAR-TAF

Oro uostai :

Jerevanas, Armėnija

platuma: 40-08-50N, ilguma: 044-23-45E, Aukštis: 865 m

Dabartinis oras

Ataskaita buvo paskelbta 23 minutes, ne 18:00 UTC
Vėjas 12 kt iš Šiaurės Rytų
Temperatūra 22°C
Drėgmė 35%
Slėgis 1017 hPa
Matomumas 10 km arba daugiau
Išsisklaidę debesys ne aukštis 4000 ft, Liūtiniai kamuoliniai debesys.

METAR: UDYZ 151800Z 04012KT 9999 SCT040CB 22/06 Q1017 R09/010070 TEMPO 04026G36KT

Laikas: 22:23 (18:23 UTC)

Prognozė

Ataskaita buvo paskelbta 1 valandą ir 21 minutes, ne 17:02 UTC
Prognozė galioja nuo 15 metu 18 UTC su 16 metu 18 UTC
Vėjas 6 kt iš Šiaurės Rytų
Matomumas 10 km arba daugiau
Mažai debesys ne aukštis 4000 ft
Laikinai
nuo 15 metu 18 UTC su 15 metu 24 UTC
Vėjas 16 kt nuo kintamojo kryptimis su gūsio iki 26 kt
Su prošvaistėmis ne aukštis 4000 ft, Liūtiniai kamuoliniai debesys.
perkūnija, lietus
Tapsmas
nuo 16 metu 02 UTC su 16 metu 04 UTC
Vėjas 6 kt iš Pietų

TAF: UDYZ 151702Z 1518/1618 04006KT 9999 FEW040 TEMPO 1518/1524 VRB16G26KT -TSRA BKN040CB BECMG 1602/1604 17006KT

Orai ataskaitas ir orų prognozės (METAR, TAF).

turimą stotys yra geltonos ir raudonos taškus žemėlapyje.

Perkelti pele per norėdami pamatyti stoties vardą.

Tada spustelėkite, norėdami matyti oro stebėjimo ir prognozės.

Norėdami pakeisti žemėlapį: spustelėkite ant žalios mygtukų su juodo kryžiaus žemyn,; žalią mygtuką su brūkšneliu, jei norite nutolinti; arba žalių rodyklių gretimoms žemėlapius.


METAR-TAF: